createdAt,value
2022-09-28T00:00:28.886Z,99013.81
2022-09-28T00:02:58.026Z,98997.19
2022-09-28T00:05:27.410Z,98988.53
2022-09-28T00:07:57.345Z,98994.13
2022-09-28T00:10:26.483Z,98946.50
2022-09-28T00:12:57.082Z,98972.78
2022-09-28T00:15:26.124Z,99012.66
2022-09-28T00:17:55.060Z,98993.16
2022-09-28T00:20:24.162Z,99029.97
2022-09-28T00:22:53.519Z,99024.41
2022-09-28T00:25:25.023Z,99012.63
2022-09-28T00:27:54.043Z,99022.69
2022-09-28T00:30:24.482Z,99011.84
2022-09-28T00:32:55.827Z,99020.84
2022-09-28T00:35:31.074Z,99032.06
2022-09-28T00:38:18.155Z,99029.03
2022-09-28T00:40:49.598Z,99028.06
2022-09-28T00:43:23.535Z,99022.41
2022-09-28T00:46:03.859Z,99004.16
2022-09-28T00:48:37.712Z,98999.84
2022-09-28T00:51:16.574Z,99000.19
2022-09-28T00:53:47.210Z,98998.53
2022-09-28T00:56:22.271Z,98996.13
2022-09-28T00:59:05.359Z,99007.22
2022-09-28T01:01:40.825Z,98997.22
2022-09-28T01:04:11.737Z,98997.88
2022-09-28T01:06:45.639Z,99004.00
2022-09-28T01:09:16.903Z,98975.41
2022-09-28T01:11:47.271Z,98969.91
2022-09-28T01:14:18.143Z,98944.53
2022-09-28T01:16:57.841Z,99002.72
2022-09-28T01:20:27.358Z,98988.50
2022-09-28T01:23:33.959Z,98995.13
2022-09-28T01:26:44.685Z,99001.78
2022-09-28T01:29:20.451Z,99004.50
2022-09-28T01:31:57.791Z,99010.22
2022-09-28T01:34:32.510Z,98999.84
2022-09-28T01:37:05.525Z,99008.53
2022-09-28T01:39:37.163Z,99002.44
2022-09-28T01:42:14.329Z,98996.72
2022-09-28T01:44:47.270Z,99001.50
2022-09-28T01:47:21.030Z,98998.53
2022-09-28T01:49:52.993Z,99002.59
2022-09-28T01:52:28.095Z,98995.19
2022-09-28T01:55:01.365Z,98990.03
2022-09-28T01:57:39.601Z,98983.72
2022-09-28T02:00:11.957Z,98985.41
2022-09-28T02:02:49.548Z,98991.63
2022-09-28T02:05:29.797Z,98976.47
2022-09-28T02:08:04.795Z,98992.44
2022-09-28T02:10:36.886Z,98990.69
2022-09-28T02:13:13.576Z,98996.44
2022-09-28T02:15:47.641Z,98994.94
2022-09-28T02:18:16.665Z,98991.50
2022-09-28T02:20:53.490Z,98999.56
2022-09-28T02:23:24.550Z,98998.97
2022-09-28T02:25:59.574Z,98993.44
2022-09-28T02:28:31.257Z,98990.91
2022-09-28T02:31:00.425Z,99004.63
2022-09-28T02:33:35.303Z,98994.25
2022-09-28T02:36:04.820Z,98978.50
2022-09-28T02:38:39.690Z,98978.63
2022-09-28T02:41:16.268Z,99000.69
2022-09-28T02:43:59.074Z,98996.69
2022-09-28T02:46:33.874Z,98992.31
2022-09-28T02:49:25.870Z,98986.97
2022-09-28T02:52:09.424Z,98994.59
2022-09-28T02:54:55.644Z,99006.44
2022-09-28T02:57:37.206Z,99002.41
2022-09-28T03:00:12.054Z,98974.56
2022-09-28T03:02:53.294Z,98980.25
2022-09-28T03:05:32.757Z,99004.75
2022-09-28T03:08:04.537Z,98968.25
2022-09-28T03:10:39.978Z,99006.06
2022-09-28T03:13:09.729Z,98993.53
2022-09-28T03:15:46.445Z,98998.03
2022-09-28T03:18:19.025Z,98994.06
2022-09-28T03:20:49.596Z,98978.53
2022-09-28T03:23:26.139Z,98980.06
2022-09-28T03:25:56.210Z,98989.59
2022-09-28T03:28:25.979Z,99001.03
2022-09-28T03:30:56.631Z,99001.31
2022-09-28T03:33:25.739Z,98973.50
2022-09-28T03:35:55.212Z,99005.56
2022-09-28T03:38:26.304Z,98993.81
2022-09-28T03:40:56.965Z,98961.88
2022-09-28T03:43:26.870Z,99002.66
2022-09-28T03:46:02.294Z,98999.88
2022-09-28T03:48:36.347Z,98999.59
2022-09-28T03:51:09.349Z,99005.47
2022-09-28T03:53:38.540Z,99013.31
2022-09-28T03:56:12.055Z,99005.88
2022-09-28T03:58:42.233Z,99012.50
2022-09-28T04:01:17.668Z,98998.91
2022-09-28T04:03:48.671Z,99008.31
2022-09-28T04:06:17.502Z,99010.25
2022-09-28T04:08:46.321Z,98990.31
2022-09-28T04:11:15.794Z,99001.66
2022-09-28T04:13:44.681Z,98982.63
2022-09-28T04:16:19.087Z,99010.38
2022-09-28T04:19:01.431Z,99007.97
2022-09-28T04:21:52.056Z,99002.97
2022-09-28T04:24:21.525Z,99009.88
2022-09-28T04:26:50.515Z,99001.78
2022-09-28T04:29:20.906Z,99007.50
2022-09-28T04:31:56.102Z,98994.72
2022-09-28T04:34:51.526Z,99001.28
2022-09-28T04:37:20.891Z,98991.13
2022-09-28T04:39:49.817Z,99007.81
2022-09-28T04:42:21.385Z,99005.06
2022-09-28T04:44:52.063Z,98994.03
2022-09-28T04:47:22.405Z,98973.09
2022-09-28T04:50:10.535Z,98976.56
2022-09-28T04:53:01.476Z,99011.59
2022-09-28T04:55:32.574Z,98989.38
2022-09-28T04:58:03.121Z,99008.75
2022-09-28T05:00:34.820Z,98992.56
2022-09-28T05:03:34.599Z,99013.69
2022-09-28T05:06:16.917Z,99005.88
2022-09-28T05:08:47.866Z,98993.09
2022-09-28T05:11:19.998Z,98991.22
2022-09-28T05:13:50.573Z,98978.31
2022-09-28T05:16:20.612Z,98989.97
2022-09-28T05:19:26.165Z,98990.31
2022-09-28T05:22:04.173Z,98980.50
2022-09-28T05:24:38.450Z,98988.28
2022-09-28T05:27:07.649Z,98991.97
2022-09-28T05:29:36.856Z,98996.91
2022-09-28T05:32:24.434Z,99003.09
2022-09-28T05:35:13.503Z,98984.47
2022-09-28T05:37:47.656Z,98993.81
2022-09-28T05:40:17.181Z,98980.13
2022-09-28T05:42:46.634Z,98972.47
2022-09-28T05:45:15.719Z,98992.91
2022-09-28T05:47:47.267Z,98992.16
2022-09-28T05:50:22.196Z,98982.69
2022-09-28T05:52:59.650Z,98998.44
2022-09-28T05:55:28.878Z,98965.03
2022-09-28T05:58:00.289Z,98987.25
2022-09-28T06:00:30.166Z,99007.53
2022-09-28T06:03:03.416Z,99004.72
2022-09-28T06:05:39.489Z,99010.31
2022-09-28T06:08:10.509Z,98978.44
2022-09-28T06:10:44.463Z,98999.72
2022-09-28T06:13:13.601Z,98995.19
2022-09-28T06:15:44.199Z,99002.91
2022-09-28T06:18:15.428Z,99002.34
2022-09-28T06:21:06.126Z,98993.19
2022-09-28T06:23:46.863Z,99002.66
2022-09-28T06:26:18.034Z,99014.78
2022-09-28T06:28:48.153Z,98992.50
2022-09-28T06:31:18.096Z,99015.75
2022-09-28T06:33:50.578Z,98998.56
2022-09-28T06:36:22.298Z,99000.44
2022-09-28T06:38:52.249Z,98996.56
2022-09-28T06:41:21.340Z,99002.59
2022-09-28T06:43:52.283Z,98979.91
2022-09-28T06:46:40.282Z,98974.06
2022-09-28T06:49:30.373Z,98978.25
2022-09-28T06:52:19.608Z,98908.06
2022-09-28T06:55:07.860Z,98963.53
2022-09-28T06:57:44.991Z,98977.56
2022-09-28T07:00:15.702Z,98967.19
2022-09-28T07:02:48.057Z,98967.28
2022-09-28T07:05:54.997Z,98970.09
2022-09-28T07:08:40.834Z,98972.84
2022-09-28T07:11:34.477Z,98977.69
2022-09-28T07:14:36.174Z,98888.16
2022-09-28T07:17:14.213Z,98966.91
2022-09-28T07:19:45.239Z,98942.84
2022-09-28T07:22:19.003Z,98931.78
2022-09-28T07:24:50.988Z,98976.25
2022-09-28T07:27:38.548Z,98976.50
2022-09-28T07:30:27.913Z,98957.34
2022-09-28T07:33:07.999Z,98973.47
2022-09-28T07:35:55.389Z,98972.19
2022-09-28T07:38:29.985Z,98973.81
2022-09-28T07:41:14.235Z,98942.50
2022-09-28T07:43:47.897Z,98969.88
2022-09-28T07:46:17.973Z,98958.81
2022-09-28T07:48:57.380Z,98973.06
2022-09-28T07:51:36.238Z,98970.75
2022-09-28T07:54:28.662Z,98970.22
2022-09-28T07:57:18.239Z,98967.69
2022-09-28T07:59:53.718Z,98926.66
2022-09-28T08:02:41.445Z,98979.53
2022-09-28T08:05:12.684Z,98972.72
2022-09-28T08:07:43.965Z,98981.19
2022-09-28T08:10:13.959Z,98971.59
2022-09-28T08:12:49.972Z,98959.13
2022-09-28T08:15:42.704Z,98967.72
2022-09-28T08:18:23.498Z,98965.91
2022-09-28T08:21:11.126Z,98958.03
2022-09-28T08:23:40.954Z,98959.25
2022-09-28T08:26:15.177Z,98960.50
2022-09-28T08:28:48.392Z,98936.28
2022-09-28T08:31:36.256Z,98947.88
2022-09-28T08:34:34.597Z,98967.88
2022-09-28T08:37:10.929Z,98971.31
2022-09-28T08:40:03.827Z,98954.28
2022-09-28T08:42:43.040Z,98900.47
2022-09-28T08:45:30.099Z,98966.34
2022-09-28T08:49:13.457Z,98955.09
2022-09-28T08:52:05.121Z,98955.94
2022-09-28T08:55:10.127Z,98912.09
2022-09-28T08:57:48.413Z,98955.06
2022-09-28T09:00:22.155Z,98956.34
2022-09-28T09:02:52.860Z,98929.75
2022-09-28T09:05:38.307Z,98957.16
2022-09-28T09:08:25.372Z,98862.47
2022-09-28T09:11:01.552Z,98924.78
2022-09-28T09:14:07.548Z,98932.16
2022-09-28T09:16:46.909Z,98954.59
2022-09-28T09:19:46.237Z,98950.28
2022-09-28T09:22:34.992Z,98954.03
2022-09-28T09:25:16.319Z,98917.59
2022-09-28T09:28:07.999Z,98939.91
2022-09-28T09:30:44.072Z,98944.19
2022-09-28T09:33:44.637Z,98902.53
2022-09-28T09:36:55.116Z,98939.00
2022-09-28T09:39:59.479Z,98948.84
2022-09-28T09:42:57.620Z,98947.63
2022-09-28T09:46:12.829Z,98933.38
2022-09-28T09:49:01.613Z,98945.91
2022-09-28T09:51:39.644Z,98926.56
2022-09-28T09:54:19.050Z,98946.78
2022-09-28T09:56:55.185Z,98959.22
2022-09-28T09:59:49.179Z,98959.63
2022-09-28T10:02:26.932Z,98952.84
2022-09-28T10:05:21.176Z,98932.16
2022-09-28T10:07:55.595Z,98945.25
2022-09-28T10:10:31.148Z,98932.09
2022-09-28T10:13:11.042Z,98956.88
2022-09-28T10:15:42.458Z,98961.16
2022-09-28T10:18:20.224Z,98953.63
2022-09-28T10:21:07.971Z,98952.22
2022-09-28T10:24:04.296Z,98939.63
2022-09-28T10:26:38.818Z,98949.44
2022-09-28T10:29:18.020Z,98951.59
2022-09-28T10:31:49.219Z,98880.66
2022-09-28T10:34:28.800Z,98951.53
2022-09-28T10:37:03.443Z,98938.19
2022-09-28T10:39:54.315Z,98940.72
2022-09-28T10:42:30.270Z,98961.13
2022-09-28T10:45:04.890Z,98959.22
2022-09-28T10:47:38.677Z,98956.75
2022-09-28T10:50:21.981Z,98969.41
2022-09-28T10:52:53.958Z,98970.84
2022-09-28T10:55:59.815Z,98943.94
2022-09-28T10:58:36.805Z,98951.59
2022-09-28T11:01:12.027Z,98948.91
2022-09-28T11:03:53.318Z,98941.81
2022-09-28T11:06:28.159Z,98933.16
2022-09-28T11:09:00.410Z,98949.34
2022-09-28T11:11:31.530Z,98948.06
2022-09-28T11:14:25.925Z,98915.63
2022-09-28T11:17:17.233Z,98922.91
2022-09-28T11:19:47.355Z,98956.09
2022-09-28T11:22:25.290Z,98949.72
2022-09-28T11:25:24.514Z,98920.97
2022-09-28T11:28:00.176Z,98907.75
2022-09-28T11:30:33.916Z,98914.69
2022-09-28T11:33:29.833Z,98926.75
2022-09-28T11:36:26.132Z,98912.63
2022-09-28T11:39:06.445Z,98941.47
2022-09-28T11:41:55.514Z,98924.44
2022-09-28T11:44:41.499Z,98921.09
2022-09-28T11:47:52.574Z,98933.22
2022-09-28T11:50:36.915Z,98926.44
2022-09-28T11:53:18.125Z,98943.91
2022-09-28T11:55:55.940Z,98925.22
2022-09-28T11:58:30.755Z,98879.50
2022-09-28T12:01:05.594Z,98956.38
2022-09-28T12:04:01.260Z,98951.78
2022-09-28T12:06:37.889Z,98905.25
2022-09-28T12:09:15.629Z,98945.16
2022-09-28T12:12:03.630Z,98957.63
2022-09-28T12:14:44.107Z,98944.72
2022-09-28T12:17:22.298Z,98948.88
2022-09-28T12:19:59.489Z,98948.03
2022-09-28T12:22:36.074Z,98940.06
2022-09-28T12:25:11.454Z,98928.84
2022-09-28T12:27:46.300Z,98929.19
2022-09-28T12:30:19.418Z,98932.41
2022-09-28T12:32:52.319Z,98923.72
2022-09-28T12:35:37.321Z,98924.44
2022-09-28T12:38:30.760Z,98945.13
2022-09-28T12:41:10.136Z,98936.84
2022-09-28T12:43:56.421Z,98939.13
2022-09-28T12:46:54.649Z,98947.63
2022-09-28T12:52:34.124Z,98944.09
2022-09-28T12:55:19.490Z,98954.28
2022-09-28T12:57:59.391Z,98954.47
2022-09-28T13:00:37.950Z,98952.75
2022-09-28T13:03:41.302Z,98946.38
2022-09-28T13:06:21.699Z,98923.97
2022-09-28T13:09:15.408Z,98955.94
2022-09-28T13:11:58.142Z,98925.75
2022-09-28T13:15:05.558Z,98942.63
2022-09-28T13:17:43.849Z,98939.31
2022-09-28T13:20:26.283Z,98928.09
2022-09-28T13:23:00.570Z,98938.91
2022-09-28T13:25:34.316Z,98902.75
2022-09-28T13:28:04.850Z,98909.38
2022-09-28T13:30:36.589Z,98933.06
2022-09-28T13:33:09.029Z,98947.19
2022-09-28T13:35:43.127Z,98940.72
2022-09-28T13:38:52.014Z,98923.00
2022-09-28T13:41:31.927Z,98945.81
2022-09-28T13:44:42.359Z,98953.94
2022-09-28T13:47:42.572Z,98957.41
2022-09-28T13:50:25.993Z,98954.13
2022-09-28T13:53:09.173Z,98910.78
2022-09-28T13:55:53.989Z,98960.94
2022-09-28T13:58:27.690Z,98953.00
2022-09-28T14:01:04.597Z,98969.44
2022-09-28T14:03:54.917Z,98939.31
2022-09-28T14:06:26.663Z,98962.19
2022-09-28T14:09:23.867Z,98941.81
2022-09-28T14:11:59.006Z,98965.44
2022-09-28T14:14:48.756Z,98961.53
2022-09-28T14:17:56.064Z,98953.66
2022-09-28T14:20:27.438Z,98899.88
2022-09-28T14:23:25.361Z,98948.47
2022-09-28T14:26:07.754Z,98953.03
2022-09-28T14:28:50.231Z,98921.03
2022-09-28T14:31:27.384Z,98957.81
2022-09-28T14:33:59.428Z,98968.84
2022-09-28T14:36:50.382Z,98910.66
2022-09-28T14:39:48.579Z,98969.63
2022-09-28T14:42:22.001Z,98939.16
2022-09-28T14:45:11.936Z,98981.81
2022-09-28T14:47:45.186Z,98980.97
2022-09-28T14:50:24.665Z,98975.59
2022-09-28T14:52:56.030Z,98982.09
2022-09-28T14:55:32.578Z,98905.94
2022-09-28T14:58:04.917Z,98984.78
2022-09-28T15:00:35.007Z,98973.53
2022-09-28T15:03:11.510Z,98982.53
2022-09-28T15:05:47.124Z,98990.09
2022-09-28T15:08:20.338Z,98997.97
2022-09-28T15:10:50.643Z,98993.09
2022-09-28T15:13:26.920Z,99000.28
2022-09-28T15:16:04.797Z,99010.00
2022-09-28T15:19:03.654Z,99006.47
2022-09-28T15:21:36.182Z,99009.00
2022-09-28T15:24:26.317Z,99008.81
2022-09-28T15:26:56.811Z,99024.63
2022-09-28T15:29:28.219Z,99010.00
2022-09-28T15:31:57.495Z,99013.44
2022-09-28T15:34:50.046Z,99023.50
2022-09-28T15:37:23.949Z,99021.66
2022-09-28T15:39:54.987Z,98973.38
2022-09-28T15:42:24.441Z,99012.28
2022-09-28T15:45:26.944Z,99030.75
2022-09-28T15:48:19.178Z,99044.03
2022-09-28T15:51:11.110Z,99052.78
2022-09-28T15:53:56.241Z,99041.97
2022-09-28T15:56:25.747Z,99039.06
2022-09-28T15:59:20.212Z,99042.94
2022-09-28T16:01:49.604Z,99049.59
2022-09-28T16:04:38.083Z,99036.44
2022-09-28T16:07:20.245Z,99073.50
2022-09-28T16:09:59.956Z,99062.66
2022-09-28T16:12:41.859Z,98982.94
2022-09-28T16:15:20.427Z,99070.38
2022-09-28T16:18:01.555Z,99078.81
2022-09-28T16:20:34.200Z,99079.25
2022-09-28T16:23:10.745Z,99060.72
2022-09-28T16:25:52.219Z,99073.03
2022-09-28T16:28:49.062Z,99075.09
2022-09-28T16:31:29.119Z,99060.47
2022-09-28T16:34:01.402Z,99061.91
2022-09-28T16:36:43.585Z,99040.97
2022-09-28T16:39:13.351Z,99087.59
2022-09-28T16:41:48.185Z,99085.72
2022-09-28T16:44:28.230Z,99085.50
2022-09-28T16:47:00.339Z,99079.44
2022-09-28T16:49:32.295Z,99070.72
2022-09-28T16:52:02.077Z,99073.34
2022-09-28T16:54:48.841Z,99074.94
2022-09-28T16:57:19.366Z,99092.41
2022-09-28T16:59:48.371Z,99083.53
2022-09-28T17:02:42.106Z,99090.88
2022-09-28T17:05:11.227Z,99079.09
2022-09-28T17:07:41.581Z,99090.81
2022-09-28T17:10:18.592Z,99090.00
2022-09-28T17:12:49.444Z,99074.38
2022-09-28T17:15:19.512Z,99099.09
2022-09-28T17:17:55.905Z,99113.03
2022-09-28T17:20:27.946Z,99127.44
2022-09-28T17:22:57.877Z,99075.56
2022-09-28T17:25:29.308Z,99150.31
2022-09-28T17:28:09.370Z,99108.88
2022-09-28T17:30:39.184Z,99161.31
2022-09-28T17:33:09.683Z,99131.31
2022-09-28T17:35:39.856Z,99154.72
2022-09-28T17:38:14.287Z,99134.53
2022-09-28T17:40:45.229Z,99032.47
2022-09-28T17:43:18.665Z,99069.47
2022-09-28T17:46:28.029Z,99180.47
2022-09-28T17:48:59.826Z,99114.50
2022-09-28T17:51:45.648Z,99172.44
2022-09-28T17:54:17.024Z,99191.38
2022-09-28T17:56:46.671Z,99191.34
2022-09-28T17:59:19.430Z,99202.75
2022-09-28T18:01:48.737Z,99206.00
2022-09-28T18:04:47.221Z,99174.03
2022-09-28T18:07:10.108Z,99211.19
2022-09-28T18:09:39.881Z,99206.50
2022-09-28T18:12:09.329Z,99215.53
2022-09-28T18:14:40.238Z,99217.59
2022-09-28T18:17:09.992Z,99218.09
2022-09-28T18:19:39.333Z,99208.53
2022-09-28T18:22:08.725Z,99204.16
2022-09-28T18:24:38.085Z,99232.31
2022-09-28T18:27:07.462Z,99171.03
2022-09-28T18:29:36.499Z,99195.47
2022-09-28T18:32:07.631Z,99234.34
2022-09-28T18:34:38.034Z,99219.59
2022-09-28T18:37:07.856Z,99240.38
2022-09-28T18:39:37.030Z,99229.81
2022-09-28T18:42:06.981Z,99206.88
2022-09-28T18:44:36.765Z,99235.31
2022-09-28T18:47:07.636Z,99256.13
2022-09-28T18:49:36.876Z,99257.13
2022-09-28T18:52:06.402Z,99250.06
2022-09-28T18:54:35.597Z,99257.91
2022-09-28T18:57:06.000Z,99278.19
2022-09-28T18:59:36.872Z,99275.13
2022-09-28T19:02:12.089Z,99093.97
2022-09-28T19:04:42.042Z,99140.41
2022-09-28T19:07:11.691Z,99253.81
2022-09-28T19:09:44.241Z,99279.97
2022-09-28T19:12:14.862Z,99247.63
2022-09-28T19:14:47.609Z,99171.28
2022-09-28T19:17:20.018Z,99287.81
2022-09-28T19:19:51.664Z,99268.34
2022-09-28T19:22:20.954Z,99283.75
2022-09-28T19:24:50.051Z,99304.00
2022-09-28T19:27:22.715Z,99281.50
2022-09-28T19:29:51.761Z,99297.72
2022-09-28T19:32:22.083Z,99331.06
2022-09-28T19:35:32.871Z,99322.38
2022-09-28T19:38:24.875Z,99044.00
2022-09-28T19:41:02.130Z,99327.22
2022-09-28T19:43:35.004Z,99023.59
2022-09-28T19:46:06.181Z,99337.41
2022-09-28T19:48:37.005Z,99340.44
2022-09-28T19:51:08.375Z,99303.09
2022-09-28T19:53:37.846Z,99312.31
2022-09-28T19:56:07.160Z,99350.41
2022-09-28T19:58:41.396Z,99286.22
2022-09-28T20:01:11.210Z,99336.22
2022-09-28T20:03:42.969Z,99295.56
2022-09-28T20:06:17.087Z,99365.16
2022-09-28T20:08:46.444Z,99363.53
2022-09-28T20:11:15.772Z,99335.47
2022-09-28T20:13:45.363Z,99363.59
2022-09-28T20:16:16.538Z,99367.19
2022-09-28T20:18:50.223Z,99371.31
2022-09-28T20:21:26.001Z,99371.03
2022-09-28T20:23:56.540Z,99362.56
2022-09-28T20:26:26.378Z,99383.31
2022-09-28T20:28:55.926Z,99343.03
2022-09-28T20:31:26.353Z,99362.09
2022-09-28T20:33:56.843Z,99358.00
2022-09-28T20:36:26.900Z,99359.03
2022-09-28T20:38:58.452Z,99375.53
2022-09-28T20:41:27.888Z,99382.34
2022-09-28T20:44:04.163Z,99377.31
2022-09-28T20:46:34.955Z,99325.00
2022-09-28T20:49:11.847Z,99390.03
2022-09-28T20:51:40.693Z,99398.28
2022-09-28T20:54:09.918Z,99395.38
2022-09-28T20:56:39.363Z,99401.19
2022-09-28T20:59:09.356Z,99398.72
2022-09-28T21:01:38.756Z,99391.03
2022-09-28T21:04:10.808Z,99371.88
2022-09-28T21:06:41.521Z,99416.06
2022-09-28T21:09:12.322Z,99408.06
2022-09-28T21:11:42.065Z,99391.09
2022-09-28T21:14:11.290Z,99399.81
2022-09-28T21:16:40.332Z,99385.66
2022-09-28T21:19:10.502Z,99317.53
2022-09-28T21:21:39.998Z,99407.13
2022-09-28T21:24:09.319Z,99388.63
2022-09-28T21:26:39.152Z,99404.22
2022-09-28T21:29:12.036Z,99395.66
2022-09-28T21:31:42.876Z,99381.97
2022-09-28T21:34:14.615Z,99404.66
2022-09-28T21:36:44.314Z,99387.38
2022-09-28T21:39:13.473Z,99402.09
2022-09-28T21:41:43.325Z,99408.66
2022-09-28T21:44:12.175Z,99342.50
2022-09-28T21:46:42.282Z,99413.19
2022-09-28T21:49:29.921Z,99171.16
2022-09-28T21:51:59.396Z,99385.09
2022-09-28T21:54:29.015Z,99394.94
2022-09-28T21:56:58.965Z,99392.19
2022-09-28T21:59:29.083Z,99391.88
2022-09-28T22:01:58.026Z,99441.59
2022-09-28T22:04:28.572Z,99428.94
2022-09-28T22:06:58.094Z,99430.91
2022-09-28T22:09:27.535Z,99383.97
2022-09-28T22:11:56.997Z,99396.78
2022-09-28T22:14:27.205Z,99435.31
2022-09-28T22:16:57.312Z,99398.72
2022-09-28T22:19:28.250Z,99456.34
2022-09-28T22:21:57.075Z,99444.19
2022-09-28T22:24:26.333Z,99447.94
2022-09-28T22:26:55.257Z,99439.69
2022-09-28T22:29:24.367Z,99453.47
2022-09-28T22:31:56.729Z,99467.50
2022-09-28T22:34:27.519Z,99461.84
2022-09-28T22:36:58.215Z,99462.06
2022-09-28T22:39:27.484Z,99451.94
2022-09-28T22:41:56.703Z,99470.47
2022-09-28T22:44:25.858Z,99479.88
2022-09-28T22:46:55.166Z,99465.72
2022-09-28T22:49:24.678Z,99445.09
2022-09-28T22:51:54.023Z,99449.44
2022-09-28T22:54:24.340Z,99475.09
2022-09-28T22:56:53.556Z,99449.28
2022-09-28T22:59:22.979Z,99430.66
2022-09-28T23:01:51.809Z,99471.06
2022-09-28T23:04:20.876Z,99462.91
2022-09-28T23:06:50.134Z,99480.44
2022-09-28T23:09:19.706Z,99446.50
2022-09-28T23:11:50.589Z,99474.28
2022-09-28T23:14:19.565Z,99477.38
2022-09-28T23:16:48.654Z,99459.44
2022-09-28T23:19:17.707Z,99466.16
2022-09-28T23:21:46.547Z,99479.72
2022-09-28T23:24:15.847Z,99471.50
2022-09-28T23:26:45.081Z,99476.56
2022-09-28T23:29:15.956Z,99471.22
2022-09-28T23:31:45.604Z,99472.06
2022-09-28T23:34:14.479Z,99473.72
2022-09-28T23:36:43.603Z,99475.13
2022-09-28T23:39:12.824Z,99483.44
2022-09-28T23:41:41.922Z,99479.66
2022-09-28T23:44:11.246Z,99448.38
2022-09-28T23:46:41.493Z,99497.19
2022-09-28T23:49:10.532Z,99448.38
2022-09-28T23:51:39.562Z,99467.88
2022-09-28T23:54:08.868Z,99495.66
2022-09-28T23:56:37.878Z,99480.63
2022-09-28T23:59:07.178Z,99481.19
